sensor_id;sensor_type;location;lat;lon;timestamp;pressure;altitude;pressure_sealevel;temperature;humidity
57192;BME280;43052;52.588;13.396;2022-08-19T00:00:26;100538.78;;;21.94;74.73
57192;BME280;43052;52.588;13.396;2022-08-19T00:02:52;100540.50;;;21.95;74.34
57192;BME280;43052;52.588;13.396;2022-08-19T00:05:19;100537.94;;;21.93;74.45
57192;BME280;43052;52.588;13.396;2022-08-19T00:07:45;100549.84;;;22.02;74.54
57192;BME280;43052;52.588;13.396;2022-08-19T00:10:12;100546.25;;;22.03;74.40
57192;BME280;43052;52.588;13.396;2022-08-19T00:12:38;100545.28;;;22.04;74.52
57192;BME280;43052;52.588;13.396;2022-08-19T00:15:05;100548.63;;;22.07;74.49
57192;BME280;43052;52.588;13.396;2022-08-19T00:17:33;100548.47;;;22.11;74.51
57192;BME280;43052;52.588;13.396;2022-08-19T00:19:58;100555.44;;;22.13;74.34
57192;BME280;43052;52.588;13.396;2022-08-19T00:22:24;100551.88;;;22.13;74.45
57192;BME280;43052;52.588;13.396;2022-08-19T00:24:52;100555.25;;;22.16;74.27
57192;BME280;43052;52.588;13.396;2022-08-19T00:27:17;100560.38;;;22.19;74.31
57192;BME280;43052;52.588;13.396;2022-08-19T00:29:42;100562.09;;;22.20;74.33
57192;BME280;43052;52.588;13.396;2022-08-19T00:32:07;100571.81;;;22.21;74.31
57192;BME280;43052;52.588;13.396;2022-08-19T00:34:32;100570.19;;;22.19;74.24
57192;BME280;43052;52.588;13.396;2022-08-19T00:36:58;100571.13;;;22.18;73.93
57192;BME280;43052;52.588;13.396;2022-08-19T00:39:24;100577.16;;;22.21;74.08
57192;BME280;43052;52.588;13.396;2022-08-19T00:41:50;100566.59;;;22.20;73.81
57192;BME280;43052;52.588;13.396;2022-08-19T00:44:22;100555.84;;;22.21;74.09
57192;BME280;43052;52.588;13.396;2022-08-19T00:46:50;100554.28;;;22.17;73.94
57192;BME280;43052;52.588;13.396;2022-08-19T00:49:21;100556.28;;;22.14;74.15
57192;BME280;43052;52.588;13.396;2022-08-19T00:51:52;100530.69;;;22.11;74.42
57192;BME280;43052;52.588;13.396;2022-08-19T00:54:18;100539.28;;;22.16;74.35
57192;BME280;43052;52.588;13.396;2022-08-19T00:56:44;100546.50;;;22.14;74.37
57192;BME280;43052;52.588;13.396;2022-08-19T00:59:10;100536.78;;;22.13;74.25
57192;BME280;43052;52.588;13.396;2022-08-19T01:01:38;100544.88;;;22.12;74.33
57192;BME280;43052;52.588;13.396;2022-08-19T01:04:04;100547.78;;;22.07;74.74
57192;BME280;43052;52.588;13.396;2022-08-19T01:06:31;100549.00;;;22.01;74.49
57192;BME280;43052;52.588;13.396;2022-08-19T01:08:58;100560.22;;;22.06;74.55
57192;BME280;43052;52.588;13.396;2022-08-19T01:11:23;100556.53;;;22.09;74.63
57192;BME280;43052;52.588;13.396;2022-08-19T01:13:50;100543.00;;;21.98;74.47
57192;BME280;43052;52.588;13.396;2022-08-19T01:16:19;100549.69;;;22.05;74.61
57192;BME280;43052;52.588;13.396;2022-08-19T01:18:45;100544.47;;;22.03;74.76
57192;BME280;43052;52.588;13.396;2022-08-19T01:21:22;100559.91;;;21.97;74.85
57192;BME280;43052;52.588;13.396;2022-08-19T01:23:50;100554.31;;;21.85;75.07
57192;BME280;43052;52.588;13.396;2022-08-19T01:26:19;100561.53;;;21.83;74.90
57192;BME280;43052;52.588;13.396;2022-08-19T01:28:46;100557.75;;;21.87;75.09
57192;BME280;43052;52.588;13.396;2022-08-19T01:31:18;100564.72;;;21.90;75.51
57192;BME280;43052;52.588;13.396;2022-08-19T01:33:46;100564.13;;;21.85;75.18
57192;BME280;43052;52.588;13.396;2022-08-19T01:36:14;100584.28;;;21.89;75.60
57192;BME280;43052;52.588;13.396;2022-08-19T01:38:42;100587.03;;;21.87;75.34
57192;BME280;43052;52.588;13.396;2022-08-19T01:41:09;100580.84;;;21.87;75.21
57192;BME280;43052;52.588;13.396;2022-08-19T01:43:35;100571.91;;;21.88;75.37
57192;BME280;43052;52.588;13.396;2022-08-19T01:46:01;100563.00;;;21.89;75.35
57192;BME280;43052;52.588;13.396;2022-08-19T01:48:33;100567.22;;;21.93;75.65
57192;BME280;43052;52.588;13.396;2022-08-19T01:50:58;100575.34;;;21.90;75.69
57192;BME280;43052;52.588;13.396;2022-08-19T01:53:24;100583.25;;;21.91;75.70
57192;BME280;43052;52.588;13.396;2022-08-19T01:55:49;100575.19;;;21.93;75.53
57192;BME280;43052;52.588;13.396;2022-08-19T01:58:19;100585.75;;;21.95;75.62
57192;BME280;43052;52.588;13.396;2022-08-19T02:00:47;100584.72;;;21.97;75.64
57192;BME280;43052;52.588;13.396;2022-08-19T02:03:12;100584.72;;;21.97;75.83
57192;BME280;43052;52.588;13.396;2022-08-19T02:05:39;100579.38;;;21.97;75.66
57192;BME280;43052;52.588;13.396;2022-08-19T02:08:05;100562.16;;;21.88;75.94
57192;BME280;43052;52.588;13.396;2022-08-19T02:10:31;100567.53;;;21.87;76.25
57192;BME280;43052;52.588;13.396;2022-08-19T02:12:57;100549.94;;;21.84;76.55
57192;BME280;43052;52.588;13.396;2022-08-19T02:15:22;100527.03;;;21.82;76.53
57192;BME280;43052;52.588;13.396;2022-08-19T02:17:48;100499.06;;;21.74;76.98
57192;BME280;43052;52.588;13.396;2022-08-19T02:20:13;100508.22;;;21.69;76.69
57192;BME280;43052;52.588;13.396;2022-08-19T02:22:40;100518.53;;;21.75;76.79
57192;BME280;43052;52.588;13.396;2022-08-19T02:25:08;100482.16;;;21.75;76.70
57192;BME280;43052;52.588;13.396;2022-08-19T02:27:33;100482.16;;;21.75;76.91
57192;BME280;43052;52.588;13.396;2022-08-19T02:29:59;100488.41;;;21.74;76.81
57192;BME280;43052;52.588;13.396;2022-08-19T02:32:24;100475.53;;;21.67;76.99
57192;BME280;43052;52.588;13.396;2022-08-19T02:34:50;100480.25;;;21.62;77.14
57192;BME280;43052;52.588;13.396;2022-08-19T02:37:15;100479.50;;;21.59;77.21
57192;BME280;43052;52.588;13.396;2022-08-19T02:39:59;100462.13;;;21.52;77.29
57192;BME280;43052;52.588;13.396;2022-08-19T02:42:24;100471.06;;;21.51;77.70
57192;BME280;43052;52.588;13.396;2022-08-19T02:44:50;100463.59;;;21.42;77.68
57192;BME280;43052;52.588;13.396;2022-08-19T02:47:16;100475.84;;;21.28;78.20
57192;BME280;43052;52.588;13.396;2022-08-19T02:49:43;100486.13;;;21.19;78.57
57192;BME280;43052;52.588;13.396;2022-08-19T02:52:09;100482.69;;;21.17;78.66
57192;BME280;43052;52.588;13.396;2022-08-19T02:54:34;100485.19;;;21.20;78.47
57192;BME280;43052;52.588;13.396;2022-08-19T02:56:59;100480.72;;;21.20;78.31
57192;BME280;43052;52.588;13.396;2022-08-19T02:59:25;100474.63;;;21.18;78.52
57192;BME280;43052;52.588;13.396;2022-08-19T03:01:51;100476.38;;;21.19;78.31
57192;BME280;43052;52.588;13.396;2022-08-19T03:04:17;100486.22;;;21.17;78.45
57192;BME280;43052;52.588;13.396;2022-08-19T03:06:44;100495.03;;;21.18;78.13
57192;BME280;43052;52.588;13.396;2022-08-19T03:09:10;100503.88;;;21.18;78.01
57192;BME280;43052;52.588;13.396;2022-08-19T03:11:37;100487.50;;;21.10;78.24
57192;BME280;43052;52.588;13.396;2022-08-19T03:14:03;100494.53;;;21.11;78.40
57192;BME280;43052;52.588;13.396;2022-08-19T03:16:31;100493.66;;;21.10;78.45
57192;BME280;43052;52.588;13.396;2022-08-19T03:18:57;100498.13;;;21.10;78.40
57192;BME280;43052;52.588;13.396;2022-08-19T03:21:27;100502.31;;;21.14;78.29
57192;BME280;43052;52.588;13.396;2022-08-19T03:23:57;100497.34;;;21.08;78.39
57192;BME280;43052;52.588;13.396;2022-08-19T03:26:23;100477.25;;;21.02;78.42
57192;BME280;43052;52.588;13.396;2022-08-19T03:28:48;100485.94;;;21.06;78.33
57192;BME280;43052;52.588;13.396;2022-08-19T03:31:17;100476.41;;;21.02;78.70
57192;BME280;43052;52.588;13.396;2022-08-19T03:33:42;100459.16;;;20.93;78.89
57192;BME280;43052;52.588;13.396;2022-08-19T03:36:19;100472.19;;;20.97;78.79
57192;BME280;43052;52.588;13.396;2022-08-19T03:38:47;100474.75;;;20.99;78.61
57192;BME280;43052;52.588;13.396;2022-08-19T03:41:25;100469.78;;;20.93;78.79
57192;BME280;43052;52.588;13.396;2022-08-19T03:43:52;100463.94;;;20.86;79.01
57192;BME280;43052;52.588;13.396;2022-08-19T03:46:20;100471.84;;;20.88;79.23
57192;BME280;43052;52.588;13.396;2022-08-19T03:48:47;100473.72;;;20.86;79.15
57192;BME280;43052;52.588;13.396;2022-08-19T03:51:19;100477.22;;;20.86;78.94
57192;BME280;43052;52.588;13.396;2022-08-19T03:53:45;100485.97;;;20.88;79.29
57192;BME280;43052;52.588;13.396;2022-08-19T03:56:10;100478.16;;;20.85;79.02
57192;BME280;43052;52.588;13.396;2022-08-19T03:58:36;100485.81;;;20.91;78.95
57192;BME280;43052;52.588;13.396;2022-08-19T04:01:07;100479.72;;;20.89;78.96
57192;BME280;43052;52.588;13.396;2022-08-19T04:03:32;100475.34;;;20.88;79.14
57192;BME280;43052;52.588;13.396;2022-08-19T04:05:58;100473.38;;;20.92;79.08
57192;BME280;43052;52.588;13.396;2022-08-19T04:08:23;100470.03;;;20.88;79.15
57192;BME280;43052;52.588;13.396;2022-08-19T04:10:49;100464.63;;;20.90;79.26
57192;BME280;43052;52.588;13.396;2022-08-19T04:13:16;100465.16;;;20.96;79.07
57192;BME280;43052;52.588;13.396;2022-08-19T04:15:43;100472.34;;;20.94;79.16
57192;BME280;43052;52.588;13.396;2022-08-19T04:18:09;100478.34;;;20.98;79.24
57192;BME280;43052;52.588;13.396;2022-08-19T04:20:53;100476.41;;;21.02;79.15
57192;BME280;43052;52.588;13.396;2022-08-19T04:23:18;100483.28;;;21.06;79.02
57192;BME280;43052;52.588;13.396;2022-08-19T04:25:44;100499.91;;;21.09;78.98
57192;BME280;43052;52.588;13.396;2022-08-19T04:28:11;100498.97;;;21.10;78.94
57192;BME280;43052;52.588;13.396;2022-08-19T04:30:51;100497.25;;;21.09;78.91
57192;BME280;43052;52.588;13.396;2022-08-19T04:33:19;100484.16;;;21.06;78.74
57192;BME280;43052;52.588;13.396;2022-08-19T04:35:47;100489.97;;;21.13;78.78
57192;BME280;43052;52.588;13.396;2022-08-19T04:38:14;100494.19;;;21.17;78.53
57192;BME280;43052;52.588;13.396;2022-08-19T04:40:42;100486.38;;;21.14;78.40
57192;BME280;43052;52.588;13.396;2022-08-19T04:43:32;100485.78;;;21.25;78.52
57192;BME280;43052;52.588;13.396;2022-08-19T04:46:04;100493.59;;;21.28;78.11
57192;BME280;43052;52.588;13.396;2022-08-19T04:48:29;100491.38;;;21.36;78.04
57192;BME280;43052;52.588;13.396;2022-08-19T04:50:56;100480.47;;;21.41;78.00
57192;BME280;43052;52.588;13.396;2022-08-19T04:53:26;100480.13;;;21.47;77.92
57192;BME280;43052;52.588;13.396;2022-08-19T04:55:53;100480.06;;;21.49;77.83
57192;BME280;43052;52.588;13.396;2022-08-19T04:58:18;100480.50;;;21.57;77.42
57192;BME280;43052;52.588;13.396;2022-08-19T05:00:44;100483.97;;;21.59;77.40
57192;BME280;43052;52.588;13.396;2022-08-19T05:03:09;100475.88;;;21.60;77.43
57192;BME280;43052;52.588;13.396;2022-08-19T05:05:41;100487.72;;;21.71;76.92
57192;BME280;43052;52.588;13.396;2022-08-19T05:08:07;100492.84;;;21.74;77.10
57192;BME280;43052;52.588;13.396;2022-08-19T05:10:36;100493.28;;;21.82;77.09
57192;BME280;43052;52.588;13.396;2022-08-19T05:13:02;100479.38;;;21.93;76.58
57192;BME280;43052;52.588;13.396;2022-08-19T05:15:27;100477.81;;;22.05;76.32
57192;BME280;43052;52.588;13.396;2022-08-19T05:17:52;100475.84;;;22.53;75.65
57192;BME280;43052;52.588;13.396;2022-08-19T05:20:39;100464.81;;;23.46;73.69
57192;BME280;43052;52.588;13.396;2022-08-19T05:23:23;100465.72;;;24.15;71.71
57192;BME280;43052;52.588;13.396;2022-08-19T05:28:15;100458.63;;;25.06;68.95
57192;BME280;43052;52.588;13.396;2022-08-19T05:30:40;100459.44;;;25.19;67.80
57192;BME280;43052;52.588;13.396;2022-08-19T05:33:06;100459.56;;;25.17;66.97
57192;BME280;43052;52.588;13.396;2022-08-19T05:35:36;100448.75;;;25.19;66.74
57192;BME280;43052;52.588;13.396;2022-08-19T05:38:02;100452.78;;;25.38;65.62
57192;BME280;43052;52.588;13.396;2022-08-19T05:40:27;100439.09;;;25.91;64.29
57192;BME280;43052;52.588;13.396;2022-08-19T05:42:52;100430.88;;;26.52;63.14
57192;BME280;43052;52.588;13.396;2022-08-19T05:45:18;100432.06;;;27.50;61.06
57192;BME280;43052;52.588;13.396;2022-08-19T05:47:43;100434.75;;;28.37;58.13
57192;BME280;43052;52.588;13.396;2022-08-19T05:50:10;100437.75;;;28.65;56.50
57192;BME280;43052;52.588;13.396;2022-08-19T05:52:36;100448.31;;;28.35;55.97
57192;BME280;43052;52.588;13.396;2022-08-19T05:55:03;100445.63;;;27.81;56.71
57192;BME280;43052;52.588;13.396;2022-08-19T05:57:29;100454.09;;;27.77;57.34
57192;BME280;43052;52.588;13.396;2022-08-19T05:59:55;100450.53;;;27.76;56.17
57192;BME280;43052;52.588;13.396;2022-08-19T06:02:21;100450.97;;;27.81;56.88
57192;BME280;43052;52.588;13.396;2022-08-19T06:04:47;100447.72;;;27.99;56.60
57192;BME280;43052;52.588;13.396;2022-08-19T06:07:12;100445.47;;;27.94;55.24
57192;BME280;43052;52.588;13.396;2022-08-19T06:09:37;100454.09;;;27.77;56.23
57192;BME280;43052;52.588;13.396;2022-08-19T06:12:03;100454.47;;;27.72;56.51
57192;BME280;43052;52.588;13.396;2022-08-19T06:14:31;100459.88;;;27.49;56.28
57192;BME280;43052;52.588;13.396;2022-08-19T06:16:57;100474.91;;;27.18;57.04
57192;BME280;43052;52.588;13.396;2022-08-19T06:19:25;100472.72;;;26.89;57.88
57192;BME280;43052;52.588;13.396;2022-08-19T06:21:52;100483.03;;;26.59;58.46
57192;BME280;43052;52.588;13.396;2022-08-19T06:24:20;100475.06;;;26.35;59.25
57192;BME280;43052;52.588;13.396;2022-08-19T06:26:48;100473.06;;;26.15;59.84
57192;BME280;43052;52.588;13.396;2022-08-19T06:29:16;100473.31;;;25.99;60.25
57192;BME280;43052;52.588;13.396;2022-08-19T06:31:45;100480.03;;;25.80;60.54
57192;BME280;43052;52.588;13.396;2022-08-19T06:34:11;100475.03;;;25.75;61.34
57192;BME280;43052;52.588;13.396;2022-08-19T06:36:40;100472.63;;;25.84;61.23
57192;BME280;43052;52.588;13.396;2022-08-19T06:39:14;100468.69;;;26.01;60.62
57192;BME280;43052;52.588;13.396;2022-08-19T06:41:42;100465.16;;;26.13;60.65
57192;BME280;43052;52.588;13.396;2022-08-19T06:44:09;100455.88;;;26.17;60.28
57192;BME280;43052;52.588;13.396;2022-08-19T06:46:35;100471.91;;;26.41;60.09
57192;BME280;43052;52.588;13.396;2022-08-19T06:49:01;100467.66;;;26.50;59.19
57192;BME280;43052;52.588;13.396;2022-08-19T06:51:26;100480.44;;;26.47;59.55
57192;BME280;43052;52.588;13.396;2022-08-19T06:53:53;100491.69;;;26.52;60.28
57192;BME280;43052;52.588;13.396;2022-08-19T06:56:21;100496.91;;;26.53;60.47
57192;BME280;43052;52.588;13.396;2022-08-19T06:58:47;100496.25;;;26.38;60.32
57192;BME280;43052;52.588;13.396;2022-08-19T07:01:15;100493.88;;;26.11;60.68
57192;BME280;43052;52.588;13.396;2022-08-19T07:03:40;100502.84;;;25.86;61.46
57192;BME280;43052;52.588;13.396;2022-08-19T07:06:08;100503.09;;;25.70;61.76
57192;BME280;43052;52.588;13.396;2022-08-19T07:08:34;100507.78;;;25.55;62.13
57192;BME280;43052;52.588;13.396;2022-08-19T07:11:02;100511.97;;;25.46;62.45
57192;BME280;43052;52.588;13.396;2022-08-19T07:13:27;100516.69;;;25.42;63.12
57192;BME280;43052;52.588;13.396;2022-08-19T07:15:52;100518.06;;;25.35;63.30
57192;BME280;43052;52.588;13.396;2022-08-19T07:18:19;100521.41;;;25.26;63.67
57192;BME280;43052;52.588;13.396;2022-08-19T07:20:45;100529.97;;;25.18;63.68
57192;BME280;43052;52.588;13.396;2022-08-19T07:23:11;100530.41;;;25.12;64.21
57192;BME280;43052;52.588;13.396;2022-08-19T07:25:37;100524.09;;;25.13;64.33
57192;BME280;43052;52.588;13.396;2022-08-19T07:28:04;100522.25;;;25.26;64.03
57192;BME280;43052;52.588;13.396;2022-08-19T07:30:30;100510.81;;;25.50;63.81
57192;BME280;43052;52.588;13.396;2022-08-19T07:32:55;100512.28;;;25.54;63.41
57192;BME280;43052;52.588;13.396;2022-08-19T07:35:21;100508.50;;;25.57;63.74
57192;BME280;43052;52.588;13.396;2022-08-19T07:37:46;100510.84;;;25.61;63.64
57192;BME280;43052;52.588;13.396;2022-08-19T07:40:12;100527.38;;;25.55;63.69
57192;BME280;43052;52.588;13.396;2022-08-19T07:42:38;100527.69;;;25.50;64.00
57192;BME280;43052;52.588;13.396;2022-08-19T07:45:04;100535.09;;;25.47;64.37
57192;BME280;43052;52.588;13.396;2022-08-19T07:47:30;100534.97;;;25.48;64.43
57192;BME280;43052;52.588;13.396;2022-08-19T07:49:56;100535.56;;;25.41;64.35
57192;BME280;43052;52.588;13.396;2022-08-19T07:52:21;100529.94;;;25.44;64.41
57192;BME280;43052;52.588;13.396;2022-08-19T07:54:47;100535.72;;;25.38;64.60
57192;BME280;43052;52.588;13.396;2022-08-19T07:57:13;100531.25;;;25.38;64.99
57192;BME280;43052;52.588;13.396;2022-08-19T07:59:39;100537.34;;;25.40;64.76
57192;BME280;43052;52.588;13.396;2022-08-19T08:02:05;100527.91;;;25.34;64.70
57192;BME280;43052;52.588;13.396;2022-08-19T08:04:30;100537.66;;;25.35;64.47
57192;BME280;43052;52.588;13.396;2022-08-19T08:07:14;100541.53;;;25.31;64.50
57192;BME280;43052;52.588;13.396;2022-08-19T08:09:58;100548.38;;;25.23;64.72
57192;BME280;43052;52.588;13.396;2022-08-19T08:12:32;100537.91;;;25.19;65.22
57192;BME280;43052;52.588;13.396;2022-08-19T08:15:00;100544.53;;;25.14;65.13
57192;BME280;43052;52.588;13.396;2022-08-19T08:17:30;100557.16;;;25.25;65.10
57192;BME280;43052;52.588;13.396;2022-08-19T08:19:56;100557.47;;;25.46;65.00
57192;BME280;43052;52.588;13.396;2022-08-19T08:22:23;100555.84;;;25.56;64.65
57192;BME280;43052;52.588;13.396;2022-08-19T08:25:13;100559.66;;;25.78;63.89
57192;BME280;43052;52.588;13.396;2022-08-19T08:27:41;100573.13;;;25.76;63.95
57192;BME280;43052;52.588;13.396;2022-08-19T08:30:15;100578.06;;;25.70;63.80
57192;BME280;43052;52.588;13.396;2022-08-19T08:32:41;100574.59;;;25.56;64.01
57192;BME280;43052;52.588;13.396;2022-08-19T08:35:08;100576.00;;;25.49;64.70
57192;BME280;43052;52.588;13.396;2022-08-19T08:37:34;100581.78;;;25.43;64.14
57192;BME280;43052;52.588;13.396;2022-08-19T08:40:04;100572.44;;;25.35;64.54
57192;BME280;43052;52.588;13.396;2022-08-19T08:42:34;100587.66;;;25.35;64.74
57192;BME280;43052;52.588;13.396;2022-08-19T08:45:13;100584.34;;;25.31;65.19
57192;BME280;43052;52.588;13.396;2022-08-19T08:47:43;100589.16;;;25.39;65.07
57192;BME280;43052;52.588;13.396;2022-08-19T08:50:18;100584.66;;;25.53;64.81
57192;BME280;43052;52.588;13.396;2022-08-19T08:52:50;100589.69;;;25.57;64.70
57192;BME280;43052;52.588;13.396;2022-08-19T08:55:20;100578.78;;;25.60;64.58
57192;BME280;43052;52.588;13.396;2022-08-19T08:57:53;100592.28;;;25.83;64.09
57192;BME280;43052;52.588;13.396;2022-08-19T09:00:34;100585.91;;;26.10;63.19
57192;BME280;43052;52.588;13.396;2022-08-19T09:03:03;100584.63;;;26.16;62.99
57192;BME280;43052;52.588;13.396;2022-08-19T09:05:49;100584.38;;;26.06;63.23
57192;BME280;43052;52.588;13.396;2022-08-19T09:11:33;100602.00;;;25.97;63.17
57192;BME280;43052;52.588;13.396;2022-08-19T09:14:14;100601.47;;;25.92;63.38
57192;BME280;43052;52.588;13.396;2022-08-19T09:16:42;100584.47;;;25.80;63.22
57192;BME280;43052;52.588;13.396;2022-08-19T09:19:08;100596.34;;;25.89;63.21
57192;BME280;43052;52.588;13.396;2022-08-19T09:21:35;100586.09;;;26.07;63.06
57192;BME280;43052;52.588;13.396;2022-08-19T09:24:02;100568.25;;;26.67;62.24
57192;BME280;43052;52.588;13.396;2022-08-19T09:26:27;100567.69;;;28.65;58.33
57192;BME280;43052;52.588;13.396;2022-08-19T09:28:53;100560.25;;;31.09;52.05
57192;BME280;43052;52.588;13.396;2022-08-19T09:31:24;100554.22;;;32.89;46.71
57192;BME280;43052;52.588;13.396;2022-08-19T09:33:50;100556.59;;;33.19;45.51
57192;BME280;43052;52.588;13.396;2022-08-19T09:36:17;100550.63;;;32.80;46.39
57192;BME280;43052;52.588;13.396;2022-08-19T09:38:44;100553.78;;;32.31;46.90
57192;BME280;43052;52.588;13.396;2022-08-19T09:41:15;100565.16;;;31.71;48.20
57192;BME280;43052;52.588;13.396;2022-08-19T09:43:41;100565.69;;;30.99;49.55
57192;BME280;43052;52.588;13.396;2022-08-19T09:46:08;100570.31;;;30.30;50.81
57192;BME280;43052;52.588;13.396;2022-08-19T09:48:39;100568.28;;;29.83;51.28
57192;BME280;43052;52.588;13.396;2022-08-19T09:51:10;100558.81;;;29.98;51.11
57192;BME280;43052;52.588;13.396;2022-08-19T09:53:37;100550.44;;;30.70;50.12
57192;BME280;43052;52.588;13.396;2022-08-19T09:56:04;100545.31;;;31.52;48.66
57192;BME280;43052;52.588;13.396;2022-08-19T09:58:31;100548.25;;;32.05;47.28
57192;BME280;43052;52.588;13.396;2022-08-19T10:00:57;100551.31;;;32.38;46.44
57192;BME280;43052;52.588;13.396;2022-08-19T10:03:24;100558.84;;;32.16;45.99
57192;BME280;43052;52.588;13.396;2022-08-19T10:05:50;100557.69;;;31.55;46.96
57192;BME280;43052;52.588;13.396;2022-08-19T10:08:20;100565.59;;;30.81;48.72
57192;BME280;43052;52.588;13.396;2022-08-19T10:10:47;100568.06;;;30.25;49.72
57192;BME280;43052;52.588;13.396;2022-08-19T10:13:15;100565.28;;;29.86;50.50
57192;BME280;43052;52.588;13.396;2022-08-19T10:15:41;100561.44;;;29.69;51.18
57192;BME280;43052;52.588;13.396;2022-08-19T10:18:07;100565.31;;;29.45;51.91
57192;BME280;43052;52.588;13.396;2022-08-19T10:20:33;100565.44;;;29.13;52.61
57192;BME280;43052;52.588;13.396;2022-08-19T10:23:00;100566.78;;;28.76;53.43
57192;BME280;43052;52.588;13.396;2022-08-19T10:25:26;100566.47;;;28.37;54.46
57192;BME280;43052;52.588;13.396;2022-08-19T10:27:52;100564.38;;;28.08;55.25
57192;BME280;43052;52.588;13.396;2022-08-19T10:30:17;100548.19;;;27.87;55.63
57192;BME280;43052;52.588;13.396;2022-08-19T10:32:43;100559.22;;;27.72;55.99
57192;BME280;43052;52.588;13.396;2022-08-19T10:35:10;100552.97;;;27.72;56.45
57192;BME280;43052;52.588;13.396;2022-08-19T10:37:36;100560.84;;;27.96;56.09
57192;BME280;43052;52.588;13.396;2022-08-19T10:40:04;100555.19;;;28.22;55.92
57192;BME280;43052;52.588;13.396;2022-08-19T10:42:31;100545.69;;;28.39;55.35
57192;BME280;43052;52.588;13.396;2022-08-19T10:44:57;100542.84;;;28.52;55.20
57192;BME280;43052;52.588;13.396;2022-08-19T10:47:22;100546.09;;;28.55;54.72
57192;BME280;43052;52.588;13.396;2022-08-19T10:49:51;100549.00;;;28.64;54.63
57192;BME280;43052;52.588;13.396;2022-08-19T10:52:35;100543.91;;;28.49;54.67
57192;BME280;43052;52.588;13.396;2022-08-19T10:55:05;100543.94;;;28.17;54.92
57192;BME280;43052;52.588;13.396;2022-08-19T10:57:49;100541.69;;;27.89;56.01
57192;BME280;43052;52.588;13.396;2022-08-19T11:00:14;100539.16;;;27.76;56.36
57192;BME280;43052;52.588;13.396;2022-08-19T11:02:40;100546.63;;;27.61;56.26
57192;BME280;43052;52.588;13.396;2022-08-19T11:05:07;100534.78;;;27.30;56.75
57192;BME280;43052;52.588;13.396;2022-08-19T11:07:32;100558.84;;;27.20;57.65
57192;BME280;43052;52.588;13.396;2022-08-19T11:09:58;100549.19;;;27.06;58.26
57192;BME280;43052;52.588;13.396;2022-08-19T11:12:23;100556.38;;;27.17;58.41
57192;BME280;43052;52.588;13.396;2022-08-19T11:14:49;100565.19;;;27.30;57.83
57192;BME280;43052;52.588;13.396;2022-08-19T11:17:14;100563.84;;;27.25;57.75
57192;BME280;43052;52.588;13.396;2022-08-19T11:19:40;100567.00;;;27.07;57.77
57192;BME280;43052;52.588;13.396;2022-08-19T11:22:08;100565.41;;;26.93;58.13
57192;BME280;43052;52.588;13.396;2022-08-19T11:24:35;100568.19;;;26.80;58.55
57192;BME280;43052;52.588;13.396;2022-08-19T11:27:06;100564.06;;;26.63;58.39
57192;BME280;43052;52.588;13.396;2022-08-19T11:29:32;100568.94;;;26.58;58.71
57192;BME280;43052;52.588;13.396;2022-08-19T11:31:59;100574.44;;;26.56;58.95
57192;BME280;43052;52.588;13.396;2022-08-19T11:34:27;100572.09;;;26.52;59.22
57192;BME280;43052;52.588;13.396;2022-08-19T11:36:53;100562.91;;;26.43;59.40
57192;BME280;43052;52.588;13.396;2022-08-19T11:39:21;100586.81;;;26.46;59.40
57192;BME280;43052;52.588;13.396;2022-08-19T11:41:47;100577.56;;;26.50;59.99
57192;BME280;43052;52.588;13.396;2022-08-19T11:44:13;100578.06;;;26.55;59.95
57192;BME280;43052;52.588;13.396;2022-08-19T11:46:40;100586.22;;;26.54;59.86
57192;BME280;43052;52.588;13.396;2022-08-19T11:49:05;100584.75;;;26.50;60.08
57192;BME280;43052;52.588;13.396;2022-08-19T11:51:34;100581.47;;;26.46;60.19
57192;BME280;43052;52.588;13.396;2022-08-19T11:53:59;100579.28;;;26.51;60.15
57192;BME280;43052;52.588;13.396;2022-08-19T11:56:26;100592.72;;;26.63;59.42
57192;BME280;43052;52.588;13.396;2022-08-19T11:58:53;100602.47;;;26.64;59.63
57192;BME280;43052;52.588;13.396;2022-08-19T12:01:21;100611.50;;;26.63;59.70
57192;BME280;43052;52.588;13.396;2022-08-19T12:03:48;100607.50;;;26.68;59.26
57192;BME280;43052;52.588;13.396;2022-08-19T12:06:17;100608.91;;;26.85;59.29
57192;BME280;43052;52.588;13.396;2022-08-19T12:08:43;100604.56;;;27.07;58.19
57192;BME280;43052;52.588;13.396;2022-08-19T12:11:10;100603.00;;;27.39;57.83
57192;BME280;43052;52.588;13.396;2022-08-19T12:13:37;100599.00;;;27.78;56.74
57192;BME280;43052;52.588;13.396;2022-08-19T12:16:10;100592.66;;;28.23;55.65
57192;BME280;43052;52.588;13.396;2022-08-19T12:18:37;100587.47;;;28.43;54.82
57192;BME280;43052;52.588;13.396;2022-08-19T12:21:02;100603.03;;;28.60;54.19
57192;BME280;43052;52.588;13.396;2022-08-19T12:23:28;100610.25;;;28.60;54.17
57192;BME280;43052;52.588;13.396;2022-08-19T12:25:54;100611.69;;;28.64;53.97
57192;BME280;43052;52.588;13.396;2022-08-19T12:28:20;100602.28;;;28.91;53.58
57192;BME280;43052;52.588;13.396;2022-08-19T12:30:47;100612.25;;;29.31;52.44
57192;BME280;43052;52.588;13.396;2022-08-19T12:33:12;100610.16;;;29.56;51.41
57192;BME280;43052;52.588;13.396;2022-08-19T12:35:43;100604.84;;;29.85;50.46
57192;BME280;43052;52.588;13.396;2022-08-19T12:38:09;100606.88;;;29.93;50.07
57192;BME280;43052;52.588;13.396;2022-08-19T12:40:34;100613.03;;;30.15;49.78
57192;BME280;43052;52.588;13.396;2022-08-19T12:42:59;100606.66;;;30.36;49.54
57192;BME280;43052;52.588;13.396;2022-08-19T12:45:25;100604.38;;;30.41;48.36
57192;BME280;43052;52.588;13.396;2022-08-19T12:47:50;100601.38;;;30.34;48.64